Time;durP1;ratioP1;P1;durP2;ratioP2;P2;SDS_P1;SDS_P2;PMS_P1;PMS_P2;Temp;Humidity;BMP_temperature;BMP_pressure;BME280_temperature;BME280_humidity;BME280_pressure;Samples;Min_cycle;Max_cycle;Signal;HPM_P1;HPM_P2
2020/12/05 00:02:03;;;;;;;24.90;14.77;;;;;;;1.08;75.06;98521.47;5037613;28;20194;-67
2020/12/05 00:04:29;;;;;;;22.47;14.33;;;;;;;1.09;75.47;98542.34;5046168;28;20304;-68
2020/12/05 00:06:55;;;;;;;29.37;17.00;;;;;;;1.08;75.41;98555.53;5047287;28;20202;-69
2020/12/05 00:09:21;;;;;;;26.83;15.40;;;;;;;1.09;75.50;98560.69;5052159;28;20197;-69
2020/12/05 00:11:47;;;;;;;22.83;14.43;;;;;;;1.07;75.43;98556.50;5052815;28;20589;-68
2020/12/05 00:14:14;;;;;;;29.13;15.97;;;;;;;1.04;75.42;98560.16;5053076;28;20232;-67
2020/12/05 00:16:40;;;;;;;25.20;14.37;;;;;;;1.02;75.90;98562.00;5054087;28;20208;-69
2020/12/05 00:19:06;;;;;;;24.13;14.40;;;;;;;1.01;76.02;98565.56;5054244;28;20558;-69
2020/12/05 00:21:32;;;;;;;24.57;14.27;;;;;;;0.99;75.97;98564.78;5052323;28;20284;-68
2020/12/05 00:23:59;;;;;;;25.97;15.70;;;;;;;0.97;75.70;98558.78;5051552;28;20261;-68
2020/12/05 00:26:25;;;;;;;23.87;14.97;;;;;;;0.96;76.12;98562.34;5053254;28;20288;-68
2020/12/05 00:28:51;;;;;;;23.70;14.70;;;;;;;0.96;76.22;98554.47;5053894;28;20245;-69
2020/12/05 00:31:20;;;;;;;30.20;15.80;;;;;;;0.96;76.12;98554.47;5053012;28;20235;-69
2020/12/05 00:33:46;;;;;;;23.57;14.53;;;;;;;0.94;76.32;98548.47;5053239;28;20252;-69
2020/12/05 00:36:15;;;;;;;30.33;16.10;;;;;;;0.94;76.58;98543.25;5053519;28;20297;-68
2020/12/05 00:38:42;;;;;;;27.67;16.60;;;;;;;0.95;76.35;98544.94;5053173;28;20661;-68
2020/12/05 00:41:08;;;;;;;26.40;16.33;;;;;;;0.96;76.79;98550.09;5052979;28;20293;-68
2020/12/05 00:43:34;;;;;;;26.13;14.83;;;;;;;0.99;76.93;98539.44;5051967;28;20333;-68
2020/12/05 00:46:03;;;;;;;26.57;15.30;;;;;;;1.02;76.62;98541.03;5053793;28;20201;-69
2020/12/05 00:48:30;;;;;;;26.87;15.43;;;;;;;1.04;76.62;98526.06;5052686;28;20288;-68
2020/12/05 00:50:56;;;;;;;34.50;15.70;;;;;;;1.01;76.46;98518.38;5053530;28;20316;-68
2020/12/05 00:53:22;;;;;;;26.07;16.17;;;;;;;0.98;76.61;98521.16;5052914;28;20257;-69
2020/12/05 00:55:48;;;;;;;24.20;15.87;;;;;;;0.95;76.50;98522.19;5050818;28;20210;-69
2020/12/05 00:58:14;;;;;;;25.37;15.53;;;;;;;0.93;76.81;98524.06;5052216;28;20213;-69
2020/12/05 01:00:41;;;;;;;23.80;14.90;;;;;;;0.92;76.71;98534.63;5051846;28;20204;-69
2020/12/05 01:03:07;;;;;;;30.80;17.13;;;;;;;0.93;76.95;98536.31;5052213;28;20221;-68
2020/12/05 01:05:35;;;;;;;28.77;16.27;;;;;;;0.93;76.71;98539.78;5051462;28;20209;-68
2020/12/05 01:08:02;;;;;;;29.13;17.23;;;;;;;0.94;76.65;98543.25;5052382;28;20205;-69
2020/12/05 01:10:28;;;;;;;28.73;15.83;;;;;;;0.94;77.39;98544.09;5053001;28;20205;-68
2020/12/05 01:12:54;;;;;;;27.47;16.20;;;;;;;0.97;77.24;98561.41;5051022;28;20602;-69
2020/12/05 01:15:20;;;;;;;31.47;17.27;;;;;;;0.99;77.21;98572.66;5052298;28;20217;-69
2020/12/05 01:17:46;;;;;;;28.50;17.20;;;;;;;0.99;77.00;98573.50;5052251;28;20688;-69
2020/12/05 01:20:12;;;;;;;26.70;17.13;;;;;;;1.00;77.00;98580.44;5052624;28;20201;-69
2020/12/05 01:22:39;;;;;;;27.80;17.13;;;;;;;1.00;77.02;98582.22;5051771;28;20293;-69
2020/12/05 01:25:05;;;;;;;28.57;16.67;;;;;;;1.02;77.16;98590.84;5051594;28;20201;-69
2020/12/05 01:27:31;;;;;;;32.67;16.80;;;;;;;1.00;77.27;98598.78;5053507;28;20613;-68
2020/12/05 01:29:57;;;;;;;29.57;17.70;;;;;;;1.00;77.26;98595.31;5051023;28;20208;-68
2020/12/05 01:32:24;;;;;;;30.63;18.50;;;;;;;0.98;76.89;98590.16;5052406;28;20235;-68
2020/12/05 01:34:50;;;;;;;28.17;17.40;;;;;;;0.98;77.28;98591.94;5051843;28;20716;-67
2020/12/05 01:37:16;;;;;;;31.47;17.77;;;;;;;1.00;77.01;98592.69;5052413;28;20201;-68
2020/12/05 01:39:43;;;;;;;28.67;16.77;;;;;;;0.99;77.41;98583.16;5051948;28;20205;-68
2020/12/05 01:42:09;;;;;;;26.20;17.43;;;;;;;0.99;77.80;98598.88;5050882;28;20288;-67
2020/12/05 01:44:35;;;;;;;29.00;17.53;;;;;;;1.00;77.24;98600.56;5051868;28;20263;-68
2020/12/05 01:47:02;;;;;;;30.60;18.53;;;;;;;0.98;77.50;98595.41;5050927;28;20202;-68
2020/12/05 01:49:29;;;;;;;30.03;17.27;;;;;;;0.98;77.75;98592.78;5051408;28;20210;-68
2020/12/05 01:51:56;;;;;;;28.47;16.17;;;;;;;0.98;77.41;98586.69;5049680;28;20235;-68
2020/12/05 01:54:22;;;;;;;31.83;18.83;;;;;;;0.97;77.91;98587.63;5050837;28;20243;-68
2020/12/05 01:56:57;;;;;;;30.83;17.57;;;;;;;0.97;77.30;98600.72;5051198;28;20603;-68
2020/12/05 01:59:23;;;;;;;31.80;17.77;;;;;;;0.97;77.92;98600.72;5049942;28;20759;-67
2020/12/05 02:01:52;;;;;;;26.83;17.30;;;;;;;0.95;77.31;98590.34;5050435;28;20573;-68
2020/12/05 02:04:18;;;;;;;30.27;17.73;;;;;;;0.96;77.50;98588.56;5046079;28;20706;-68
2020/12/05 02:06:52;;;;;;;29.03;17.77;;;;;;;0.94;77.88;98575.53;5048778;28;20219;-68
2020/12/05 02:09:22;;;;;;;26.77;17.80;;;;;;;0.93;77.78;98558.13;5050916;28;20582;-67
2020/12/05 02:11:59;;;;;;;32.47;17.77;;;;;;;0.94;77.66;98564.22;5050532;28;20229;-68
2020/12/05 02:14:27;;;;;;;27.93;16.97;;;;;;;0.93;77.90;98565.13;5048335;28;20717;-67
2020/12/05 02:16:59;;;;;;;31.80;18.50;;;;;;;0.92;77.75;98556.44;5050674;28;20220;-67
2020/12/05 02:19:33;;;;;;;32.30;18.93;;;;;;;0.91;77.64;98552.13;5052059;28;20204;-68
2020/12/05 02:22:01;;;;;;;29.77;18.63;;;;;;;0.91;77.81;98551.28;5050504;28;20669;-68
2020/12/05 02:24:29;;;;;;;30.43;18.30;;;;;;;0.92;78.39;98555.59;5051424;28;20226;-67
2020/12/05 02:26:55;;;;;;;30.00;18.10;;;;;;;0.92;78.33;98553.81;5050332;28;20225;-67
2020/12/05 02:29:21;;;;;;;27.37;17.57;;;;;;;0.92;78.27;98560.81;5051164;28;20666;-68
2020/12/05 02:31:48;;;;;;;29.53;18.00;;;;;;;0.93;77.85;98557.28;5049891;28;20614;-67
2020/12/05 02:34:14;;;;;;;29.43;18.33;;;;;;;0.94;78.10;98567.69;5051253;28;20227;-68
2020/12/05 02:36:40;;;;;;;32.60;19.07;;;;;;;0.94;78.23;98570.28;5051281;28;20202;-68
2020/12/05 02:39:09;;;;;;;29.07;17.63;;;;;;;0.94;78.19;98556.34;5033460;28;20202;-68
2020/12/05 02:41:40;;;;;;;28.73;18.07;;;;;;;0.93;78.01;98563.38;5042755;28;20255;-67
2020/12/05 02:44:07;;;;;;;29.27;18.13;;;;;;;0.92;78.19;98556.44;5049346;28;20675;-68
2020/12/05 02:46:34;;;;;;;29.77;18.90;;;;;;;0.92;78.34;98560.81;5051287;28;20201;-68
2020/12/05 02:49:00;;;;;;;31.63;19.23;;;;;;;0.93;78.08;98557.28;5051410;28;20205;-68
2020/12/05 02:51:26;;;;;;;27.57;17.77;;;;;;;0.93;78.54;98552.88;5051192;28;20232;-67
2020/12/05 02:53:56;;;;;;;31.10;17.90;;;;;;;0.94;78.39;98565.06;5050601;28;20225;-67
2020/12/05 02:56:22;;;;;;;29.70;17.70;;;;;;;0.94;78.46;98569.44;5051252;28;20205;-68
2020/12/05 02:58:49;;;;;;;28.93;18.20;;;;;;;0.93;78.51;98584.34;5051752;28;20212;-68
2020/12/05 03:01:15;;;;;;;28.07;18.10;;;;;;;0.92;78.28;98584.41;5051285;28;20288;-68
2020/12/05 03:03:41;;;;;;;30.43;18.43;;;;;;;0.90;78.71;98586.28;5050481;28;20249;-67
2020/12/05 03:06:07;;;;;;;28.23;18.03;;;;;;;0.87;78.45;98589.94;5050938;28;20208;-67
2020/12/05 03:08:33;;;;;;;34.50;19.00;;;;;;;0.87;78.61;98589.09;5050482;28;20224;-68
2020/12/05 03:10:59;;;;;;;32.27;19.13;;;;;;;0.86;78.81;98595.25;5047958;28;20213;-68
2020/12/05 03:13:27;;;;;;;29.60;17.60;;;;;;;0.87;78.56;98594.34;5053630;28;20225;-68
2020/12/05 03:15:54;;;;;;;29.97;19.03;;;;;;;0.87;78.92;98616.16;5055179;28;20204;-68
2020/12/05 03:18:20;;;;;;;28.10;18.13;;;;;;;0.86;78.83;98613.59;5055149;28;20205;-67
2020/12/05 03:20:46;;;;;;;30.93;19.33;;;;;;;0.84;78.85;98628.56;5055654;28;20206;-68
2020/12/05 03:23:12;;;;;;;28.73;18.27;;;;;;;0.81;78.87;98632.19;5054238;28;20232;-68
2020/12/05 03:25:38;;;;;;;29.20;17.77;;;;;;;0.80;78.89;98629.66;5054702;28;20206;-68
2020/12/05 03:28:04;;;;;;;29.87;17.70;;;;;;;0.79;78.92;98630.59;5054955;28;20224;-67
2020/12/05 03:30:30;;;;;;;32.80;19.13;;;;;;;0.79;79.21;98627.97;5055024;28;20212;-68
2020/12/05 03:32:57;;;;;;;32.93;18.87;;;;;;;0.78;79.17;98621.03;5053449;28;20229;-68
2020/12/05 03:35:26;;;;;;;30.30;18.53;;;;;;;0.79;79.28;98627.97;5055384;28;20275;-68
2020/12/05 03:37:52;;;;;;;31.90;17.80;;;;;;;0.79;79.29;98612.25;5054125;28;20211;-67
2020/12/05 03:40:18;;;;;;;28.43;18.80;;;;;;;0.79;79.47;98597.38;5054154;28;20202;-68
2020/12/05 03:42:44;;;;;;;33.17;19.63;;;;;;;0.79;79.14;98594.75;5053610;28;20221;-68
2020/12/05 03:45:10;;;;;;;32.20;19.07;;;;;;;0.82;79.51;98589.34;5054125;28;20205;-68
2020/12/05 03:47:36;;;;;;;32.67;18.30;;;;;;;0.84;79.36;98578.78;5066146;28;20204;-67
2020/12/05 03:50:04;;;;;;;28.80;17.23;;;;;;;0.85;79.80;98554.28;5059292;28;20216;-67
2020/12/05 03:52:30;;;;;;;28.83;18.00;;;;;;;0.88;79.90;98538.38;5042980;28;20228;-67
2020/12/05 03:54:56;;;;;;;29.93;18.37;;;;;;;0.88;79.77;98507.78;5053171;28;20220;-68
2020/12/05 03:57:22;;;;;;;28.17;17.63;;;;;;;0.91;79.72;98504.09;5054603;28;20204;-68
2020/12/05 03:59:48;;;;;;;28.00;17.27;;;;;;;0.92;80.03;98508.41;5054739;28;20252;-70
2020/12/05 04:02:15;;;;;;;31.47;18.77;;;;;;;0.92;79.56;98514.50;5052968;28;20208;-67
2020/12/05 04:04:41;;;;;;;33.00;19.33;;;;;;;0.93;79.93;98526.66;5054054;28;20236;-68
2020/12/05 04:07:08;;;;;;;34.60;19.77;;;;;;;0.95;80.20;98550.19;5050932;28;20216;-67
2020/12/05 04:09:34;;;;;;;33.33;19.33;;;;;;;0.95;79.67;98564.13;5043862;28;20724;-68
2020/12/05 04:12:00;;;;;;;32.83;18.97;;;;;;;0.95;80.15;98566.75;5052064;28;20701;-67
2020/12/05 04:14:26;;;;;;;32.70;20.40;;;;;;;0.97;80.29;98574.53;5051881;28;20232;-68
2020/12/05 04:16:52;;;;;;;30.30;19.00;;;;;;;0.97;79.95;98590.25;5054087;28;20213;-67
2020/12/05 04:19:18;;;;;;;33.93;20.00;;;;;;;0.99;79.82;98594.47;5051421;28;20208;-67
2020/12/05 04:21:44;;;;;;;28.97;17.53;;;;;;;0.99;79.95;98594.47;5053084;28;20208;-67
2020/12/05 04:24:11;;;;;;;34.07;19.03;;;;;;;1.00;79.99;98590.91;5042035;28;20229;-66
2020/12/05 04:26:37;;;;;;;30.20;19.10;;;;;;;1.00;80.28;98590.06;5051083;28;20220;-67
2020/12/05 04:29:03;;;;;;;31.10;18.63;;;;;;;1.00;79.80;98609.28;5053757;28;20209;-68
2020/12/05 04:31:30;;;;;;;34.73;18.73;;;;;;;1.02;80.16;98614.44;5052820;28;20312;-69
2020/12/05 04:33:56;;;;;;;28.83;17.40;;;;;;;1.03;80.08;98627.44;5053477;28;20249;-68
2020/12/05 04:36:22;;;;;;;28.73;18.50;;;;;;;1.02;79.67;98648.50;5053115;28;20205;-67
2020/12/05 04:38:48;;;;;;;27.83;17.33;;;;;;;1.01;80.08;98641.56;5053115;28;20206;-67
2020/12/05 04:41:15;;;;;;;29.13;17.07;;;;;;;0.98;79.86;98629.47;5052415;28;20210;-68
2020/12/05 04:43:41;;;;;;;30.00;16.97;;;;;;;0.98;80.42;98615.53;5052100;28;20236;-67
2020/12/05 04:46:08;;;;;;;26.53;16.20;;;;;;;0.99;80.42;98622.47;5053758;28;20205;-68
2020/12/05 04:48:34;;;;;;;30.20;16.40;;;;;;;1.01;80.53;98612.75;5052001;28;20209;-68
2020/12/05 04:51:02;;;;;;;27.17;15.53;;;;;;;1.03;80.38;98603.00;5053549;28;20201;-68
2020/12/05 04:53:30;;;;;;;29.53;17.50;;;;;;;1.06;80.26;98607.25;5051717;28;20785;-66
2020/12/05 04:55:59;;;;;;;30.20;17.17;;;;;;;1.07;80.56;98622.88;5053925;28;20210;-68
2020/12/05 04:58:26;;;;;;;26.93;16.70;;;;;;;1.10;80.75;98625.31;5053642;28;20263;-67
2020/12/05 05:00:54;;;;;;;29.23;16.57;;;;;;;1.11;80.39;98608.66;5052510;28;20212;-67
2020/12/05 05:03:22;;;;;;;29.93;17.20;;;;;;;1.14;80.41;98597.13;5052577;28;20218;-68
2020/12/05 05:05:49;;;;;;;30.37;17.67;;;;;;;1.14;80.27;98610.25;5052391;28;20201;-67
2020/12/05 05:08:15;;;;;;;30.13;17.50;;;;;;;1.14;80.67;98615.50;5053877;28;20206;-67
2020/12/05 05:10:42;;;;;;;29.13;18.17;;;;;;;1.13;80.39;98635.63;5052709;28;20206;-67
2020/12/05 05:13:14;;;;;;;26.33;17.17;;;;;;;1.14;80.45;98654.81;5052264;28;20315;-68
2020/12/05 05:15:42;;;;;;;29.87;17.77;;;;;;;1.14;80.86;98670.53;5047673;28;20798;-68
2020/12/05 05:18:09;;;;;;;28.30;16.60;;;;;;;1.14;80.66;98681.88;5052592;28;20681;-68
2020/12/05 05:20:41;;;;;;;27.67;17.97;;;;;;;1.16;80.49;98689.66;5052720;28;20745;-67
2020/12/05 05:23:12;;;;;;;29.20;16.60;;;;;;;1.15;80.39;98695.84;5051435;28;20226;-67
2020/12/05 05:25:49;;;;;;;28.40;16.30;;;;;;;1.15;80.66;98690.59;5046705;28;20245;-68
2020/12/05 05:28:18;;;;;;;24.70;15.57;;;;;;;1.14;80.20;98671.41;5051946;28;20205;-67
2020/12/05 05:31:00;;;;;;;28.57;16.67;;;;;;;1.14;80.72;98676.63;5052451;28;20300;-67
2020/12/05 05:33:26;;;;;;;27.27;15.67;;;;;;;1.13;80.61;98680.19;5050979;28;20225;-66
2020/12/05 05:35:53;;;;;;;31.50;17.00;;;;;;;1.14;80.49;98687.13;5051869;28;20580;-68
2020/12/05 05:38:23;;;;;;;27.80;16.63;;;;;;;1.14;80.77;98681.03;5052050;28;20205;-67
2020/12/05 05:40:50;;;;;;;29.43;16.87;;;;;;;1.13;80.39;98663.63;5040278;28;20669;-68
2020/12/05 05:43:18;;;;;;;28.03;17.03;;;;;;;1.12;80.80;98651.44;5074116;22;20259;-67
2020/12/05 05:45:45;;;;;;;28.10;16.77;;;;;;;1.12;80.64;98641.78;5051687;28;20209;-67
2020/12/05 05:48:13;;;;;;;33.17;17.77;;;;;;;1.13;80.49;98648.72;5052225;28;20266;-69
2020/12/05 05:50:40;;;;;;;28.27;16.27;;;;;;;1.12;80.50;98648.81;5035273;28;20203;-68
2020/12/05 05:53:07;;;;;;;29.53;17.87;;;;;;;1.11;80.47;98641.88;5042038;28;20228;-67
2020/12/05 05:55:43;;;;;;;33.07;17.97;;;;;;;1.11;80.86;98636.63;5047428;28;20216;-67
2020/12/05 05:58:10;;;;;;;28.07;16.60;;;;;;;1.11;80.52;98637.47;5034127;28;20264;-67
2020/12/05 06:00:37;;;;;;;29.03;16.63;;;;;;;1.10;80.89;98627.06;5031947;28;20204;-68
2020/12/05 06:03:17;;;;;;;27.33;16.90;;;;;;;1.10;80.91;98661.16;5036222;28;20599;-66
2020/12/05 06:05:45;;;;;;;29.17;17.13;;;;;;;1.09;80.80;98660.31;5041356;28;20213;-67
2020/12/05 06:08:15;;;;;;;30.00;16.93;;;;;;;1.09;80.89;98660.31;5048393;28;20201;-68
2020/12/05 06:10:46;;;;;;;27.17;16.50;;;;;;;1.11;80.65;98670.72;5048779;28;20212;-68
2020/12/05 06:13:17;;;;;;;27.17;15.97;;;;;;;1.09;80.74;98672.56;5047520;28;20229;-67
2020/12/05 06:15:44;;;;;;;24.37;16.57;;;;;;;1.10;80.55;98682.97;5050274;28;20213;-66
2020/12/05 06:18:11;;;;;;;31.17;16.93;;;;;;;1.11;80.86;98681.19;5051526;28;20688;-68
2020/12/05 06:20:38;;;;;;;26.37;16.83;;;;;;;1.10;81.00;98706.56;5046252;28;20571;-68
2020/12/05 06:23:11;;;;;;;25.17;16.57;;;;;;;1.08;80.89;98697.94;5050854;28;20209;-67
2020/12/05 06:25:40;;;;;;;27.03;16.83;;;;;;;1.08;80.60;98668.25;5044049;28;20202;-67
2020/12/05 06:28:07;;;;;;;24.57;16.23;;;;;;;1.07;81.22;98664.81;5046727;28;20579;-68
2020/12/05 06:30:33;;;;;;;27.90;16.53;;;;;;;1.06;81.04;98684.09;5052088;28;20206;-67
2020/12/05 06:32:59;;;;;;;29.67;17.33;;;;;;;1.06;81.33;98663.13;5040801;28;20232;-66
2020/12/05 06:35:31;;;;;;;30.13;16.27;;;;;;;1.06;81.22;98672.78;5035653;28;20202;-67
2020/12/05 06:37:58;;;;;;;29.17;17.47;;;;;;;1.08;81.48;98702.34;5044745;28;20202;-68
2020/12/05 06:40:26;;;;;;;38.97;21.30;;;;;;;1.08;81.33;98718.91;5048316;28;20582;-67
2020/12/05 06:42:55;;;;;;;34.27;18.20;;;;;;;1.10;81.14;98742.44;5048602;28;20769;-67
2020/12/05 06:45:38;;;;;;;40.77;19.93;;;;;;;1.10;80.95;98743.28;5049875;28;20232;-67
2020/12/05 06:48:30;;;;;;;40.97;21.57;;;;;;;1.13;81.06;98734.41;5042104;28;20212;-68
2020/12/05 06:50:56;;;;;;;42.60;20.87;;;;;;;1.15;81.47;98767.47;5043334;28;20239;-67
2020/12/05 06:53:31;;;;;;;31.87;17.27;;;;;;;1.16;81.37;98792.75;5040370;28;20225;-68
2020/12/05 06:55:57;;;;;;;30.97;17.30;;;;;;;1.18;81.41;98798.78;5049123;28;20648;-68
2020/12/05 06:58:25;;;;;;;28.20;16.33;;;;;;;1.20;81.46;98790.81;5047696;28;20206;-67
2020/12/05 07:00:52;;;;;;;29.60;16.80;;;;;;;1.23;81.64;98807.25;5047976;28;20695;-68
2020/12/05 07:03:24;;;;;;;25.33;16.27;;;;;;;1.28;81.25;98833.19;5048417;28;20744;-67
2020/12/05 07:05:50;;;;;;;31.17;16.67;;;;;;;1.31;81.50;98822.53;5046893;28;20678;-68
2020/12/05 07:08:29;;;;;;;29.87;16.50;;;;;;;1.36;81.24;98815.28;5033979;28;20206;-67
2020/12/05 07:11:02;;;;;;;26.90;15.60;;;;;;;1.41;81.23;98818.50;5046096;28;20206;-67
2020/12/05 07:13:37;;;;;;;25.97;15.03;;;;;;;1.44;81.10;98809.59;5031157;28;20230;-67
2020/12/05 07:16:14;;;;;;;27.83;15.43;;;;;;;1.48;81.03;98803.25;5045963;28;20256;-68
2020/12/05 07:18:40;;;;;;;23.90;14.97;;;;;;;1.53;81.63;98812.56;5032166;28;20206;-67
2020/12/05 07:21:07;;;;;;;28.83;15.80;;;;;;;1.59;81.37;98812.22;5032223;28;20228;-68
2020/12/05 07:23:34;;;;;;;30.23;16.03;;;;;;;1.65;81.01;98824.97;5036183;28;20235;-68
2020/12/05 07:26:01;;;;;;;24.03;14.70;;;;;;;1.74;80.49;98828.88;5039117;28;20210;-68
2020/12/05 07:28:27;;;;;;;28.70;16.37;;;;;;;1.80;81.26;98827.66;5048082;28;20212;-67
2020/12/05 07:30:54;;;;;;;27.63;16.20;;;;;;;1.86;80.23;98836.06;5050313;28;20688;-68
2020/12/05 07:33:21;;;;;;;28.67;15.87;;;;;;;1.91;80.28;98820.91;5035660;28;20234;-67
2020/12/05 07:35:55;;;;;;;26.93;15.63;;;;;;;1.99;80.20;98841.44;5050149;28;20206;-68
2020/12/05 07:38:21;;;;;;;32.60;15.50;;;;;;;2.07;80.73;98861.09;5036654;28;20687;-67
2020/12/05 07:40:47;;;;;;;27.83;16.37;;;;;;;2.16;79.98;98845.72;5050809;28;20684;-68
2020/12/05 07:43:19;;;;;;;29.47;16.57;;;;;;;2.24;80.08;98838.25;5049118;28;20199;-68
2020/12/05 07:45:47;;;;;;;28.33;16.20;;;;;;;2.29;79.76;98857.22;5048513;28;20749;-68
2020/12/05 07:48:16;;;;;;;25.57;15.23;;;;;;;2.32;80.03;98849.19;5049903;28;20670;-67
2020/12/05 07:50:42;;;;;;;31.57;17.10;;;;;;;2.36;79.32;98854.13;5048555;28;20202;-67
2020/12/05 07:53:25;;;;;;;28.60;16.40;;;;;;;2.38;79.88;98849.66;5042762;28;20233;-69
2020/12/05 07:55:51;;;;;;;29.10;16.77;;;;;;;2.40;79.97;98850.41;5044031;28;20202;-67
2020/12/05 07:58:18;;;;;;;25.23;15.57;;;;;;;2.40;79.39;98849.56;5042701;28;20203;-68
2020/12/05 08:00:45;;;;;;;25.87;16.17;;;;;;;2.42;79.97;98877.44;5048685;28;20715;-68
2020/12/05 08:03:37;;;;;;;30.00;16.83;;;;;;;2.42;79.43;98895.81;5051003;28;20202;-68
2020/12/05 08:06:13;;;;;;;28.80;16.00;;;;;;;2.44;80.30;98916.75;5049486;28;20197;-68
2020/12/05 08:08:47;;;;;;;23.83;15.17;;;;;;;2.46;80.02;98942.94;5042577;28;20202;-67
2020/12/05 08:11:13;;;;;;;25.00;14.47;;;;;;;2.47;80.04;98956.00;5051615;28;20688;-67
2020/12/05 08:13:40;;;;;;;25.43;15.60;;;;;;;2.50;80.15;98962.88;5040402;28;20237;-68
2020/12/05 08:16:08;;;;;;;23.93;15.77;;;;;;;2.50;80.52;98968.97;5053966;28;20653;-68
2020/12/05 08:18:35;;;;;;;21.43;14.13;;;;;;;2.52;79.82;98974.97;5041445;28;20289;-68
2020/12/05 08:21:03;;;;;;;18.43;12.90;;;;;;;2.55;80.83;98966.91;5052013;28;20198;-68
2020/12/05 08:23:32;;;;;;;21.83;13.20;;;;;;;2.60;80.32;98964.03;5052737;28;20217;-68
2020/12/05 08:26:03;;;;;;;25.67;13.67;;;;;;;2.62;80.42;98973.50;5053830;28;20236;-68
2020/12/05 08:28:31;;;;;;;18.33;12.63;;;;;;;2.65;79.87;98969.88;5048908;28;20198;-68
2020/12/05 08:31:04;;;;;;;16.70;11.20;;;;;;;2.67;80.34;98982.00;5040459;28;20298;-68
2020/12/05 08:33:30;;;;;;;18.27;12.30;;;;;;;2.70;80.56;98980.94;5050837;28;20233;-68
2020/12/05 08:35:56;;;;;;;21.10;12.73;;;;;;;2.71;80.07;98986.09;5051731;28;20205;-67
2020/12/05 08:38:24;;;;;;;18.50;12.60;;;;;;;2.72;80.91;99008.84;5049051;28;20637;-68
2020/12/05 08:41:02;;;;;;;20.17;11.43;;;;;;;2.75;80.39;99027.06;5043498;28;20214;-68
2020/12/05 08:43:28;;;;;;;19.30;12.17;;;;;;;2.77;80.75;99025.19;5047992;28;20232;-68
2020/12/05 08:45:54;;;;;;;17.27;11.77;;;;;;;2.81;80.48;99020.63;5053054;28;20210;-68
2020/12/05 08:48:21;;;;;;;16.13;11.27;;;;;;;2.82;80.75;99014.44;5052488;28;20219;-69
2020/12/05 08:50:48;;;;;;;15.00;10.73;;;;;;;2.84;80.25;99016.97;5040240;28;20215;-68
2020/12/05 08:53:15;;;;;;;17.03;10.73;;;;;;;2.86;81.00;99025.63;5050954;28;20239;-68
2020/12/05 08:55:46;;;;;;;16.67;10.63;;;;;;;2.89;80.58;99022.78;5051596;28;20205;-68
2020/12/05 08:58:12;;;;;;;14.00;10.20;;;;;;;2.92;80.77;99012.94;5050613;28;20213;-68
2020/12/05 09:00:39;;;;;;;12.23;9.30;;;;;;;2.93;79.93;99009.38;5052225;28;20263;-68
2020/12/05 09:03:16;;;;;;;14.20;10.40;;;;;;;2.95;80.09;99006.66;5049629;28;20202;-68
2020/12/05 09:05:46;;;;;;;14.00;10.00;;;;;;;2.99;80.11;99024.81;5049778;28;20214;-68
2020/12/05 09:08:18;;;;;;;15.23;12.57;;;;;;;3.01;80.62;99032.63;5050950;28;20612;-67
2020/12/05 09:10:44;;;;;;;12.23;9.07;;;;;;;3.04;80.72;99043.81;5050456;28;20674;-67
2020/12/05 09:13:10;;;;;;;12.27;9.23;;;;;;;3.04;79.99;99054.34;5050575;28;20226;-67
2020/12/05 09:15:37;;;;;;;11.63;9.10;;;;;;;3.08;80.33;99074.22;5050362;28;20206;-67
2020/12/05 09:18:03;;;;;;;12.13;9.23;;;;;;;3.08;80.53;99073.38;5051842;28;20204;-69
2020/12/05 09:20:29;;;;;;;10.03;7.83;;;;;;;3.09;80.34;99081.19;5052000;28;20300;-69
2020/12/05 09:22:57;;;;;;;11.70;8.33;;;;;;;3.11;79.87;99092.47;5050002;28;20198;-69
2020/12/05 09:25:29;;;;;;;12.53;7.90;;;;;;;3.13;79.77;99089.75;5051849;28;20202;-70
2020/12/05 09:27:55;;;;;;;11.50;8.23;;;;;;;3.14;80.08;99100.19;5046961;28;20201;-69
2020/12/05 09:30:23;;;;;;;12.10;8.03;;;;;;;3.16;80.33;99107.16;5048916;28;20212;-68
2020/12/05 09:32:50;;;;;;;9.50;7.80;;;;;;;3.15;80.58;99095.78;5050357;28;20716;-68
2020/12/05 09:35:18;;;;;;;10.97;8.20;;;;;;;3.16;79.80;99107.16;5049570;28;20232;-69
2020/12/05 09:37:45;;;;;;;11.77;8.70;;;;;;;3.16;80.10;99113.25;5051769;28;20205;-69
2020/12/05 09:40:15;;;;;;;12.50;8.30;;;;;;;3.16;80.45;99110.63;5046758;28;20296;-68
2020/12/05 09:42:43;;;;;;;10.17;7.80;;;;;;;3.16;79.65;99131.66;5046193;28;20207;-68
2020/12/05 09:45:10;;;;;;;11.10;8.20;;;;;;;3.18;80.08;99136.84;5050445;28;20233;-69
2020/12/05 09:47:38;;;;;;;10.10;8.07;;;;;;;3.19;80.44;99120.97;5047624;28;20582;-69
2020/12/05 09:50:04;;;;;;;10.13;7.53;;;;;;;3.20;80.17;99111.31;5051188;28;21030;-68
2020/12/05 09:52:30;;;;;;;10.47;7.53;;;;;;;3.21;79.51;99123.53;5044296;28;20230;-68
2020/12/05 09:54:56;;;;;;;14.13;8.23;;;;;;;3.23;79.73;99132.16;5050336;28;20245;-69
2020/12/05 09:57:23;;;;;;;11.20;7.83;;;;;;;3.23;79.88;99140.88;5049419;28;20221;-69
2020/12/05 09:59:49;;;;;;;10.60;8.03;;;;;;;3.26;80.43;99147.75;5050817;28;20237;-69
2020/12/05 10:02:15;;;;;;;9.43;7.30;;;;;;;3.28;80.59;99145.91;5048332;28;20201;-69
2020/12/05 10:04:41;;;;;;;9.63;7.30;;;;;;;3.30;80.36;99147.50;5049173;28;20225;-68
2020/12/05 10:07:08;;;;;;;11.53;8.20;;;;;;;3.31;80.25;99153.63;5047727;28;20207;-69
2020/12/05 10:09:35;;;;;;;9.10;7.30;;;;;;;3.35;80.11;99149.88;5048709;28;20677;-68
2020/12/05 10:12:01;;;;;;;9.47;7.40;;;;;;;3.39;80.08;99135.63;5048813;28;20202;-69
2020/12/05 10:14:28;;;;;;;8.67;6.60;;;;;;;3.40;79.93;99140.75;5046389;28;20225;-69
2020/12/05 10:16:54;;;;;;;7.70;6.47;;;;;;;3.43;80.62;99142.38;5046792;28;20221;-69
2020/12/05 10:19:20;;;;;;;9.27;7.60;;;;;;;3.45;80.25;99116.81;5041680;28;20212;-69
2020/12/05 10:21:47;;;;;;;9.30;6.57;;;;;;;3.47;80.53;99126.31;5048688;28;20205;-68
2020/12/05 10:24:14;;;;;;;9.37;6.90;;;;;;;3.49;80.42;99127.09;5048360;28;20225;-69
2020/12/05 10:26:40;;;;;;;8.93;7.13;;;;;;;3.54;80.24;99126.81;5046126;28;20213;-70
2020/12/05 10:29:06;;;;;;;9.20;6.80;;;;;;;3.60;79.99;99129.06;5043797;28;20221;-69
2020/12/05 10:31:33;;;;;;;9.70;7.20;;;;;;;3.67;80.02;99137.47;5036459;28;20203;-68
2020/12/05 10:33:59;;;;;;;8.93;7.13;;;;;;;3.72;80.52;99119.63;5048843;28;20229;-68
2020/12/05 10:36:25;;;;;;;9.83;6.80;;;;;;;3.77;80.39;99110.47;5045288;28;20208;-68
2020/12/05 10:38:51;;;;;;;8.00;6.10;;;;;;;3.83;80.49;99125.09;5036238;28;20210;-70
2020/12/05 10:41:17;;;;;;;7.80;6.00;;;;;;;3.89;80.29;99114.19;5047838;28;20202;-69
2020/12/05 10:43:44;;;;;;;7.60;5.13;;;;;;;3.95;79.81;99115.56;5040498;28;20225;-69
2020/12/05 10:46:10;;;;;;;7.60;6.23;;;;;;;4.01;79.78;99115.22;5044635;28;20255;-69
2020/12/05 10:48:37;;;;;;;7.67;5.40;;;;;;;4.05;79.95;99125.47;5047050;28;20198;-68
2020/12/05 10:51:03;;;;;;;5.53;4.80;;;;;;;4.11;79.35;99127.75;5048759;28;20208;-69
2020/12/05 10:53:29;;;;;;;6.30;4.97;;;;;;;4.13;79.24;99117.94;5044134;28;20312;-69
2020/12/05 10:55:55;;;;;;;6.50;5.23;;;;;;;4.16;79.35;99123.03;5045965;28;20211;-68
2020/12/05 10:58:21;;;;;;;7.20;5.57;;;;;;;4.23;79.11;99130.56;5048517;28;20312;-69
2020/12/05 11:00:47;;;;;;;5.57;4.90;;;;;;;4.26;79.23;99136.50;5047879;28;20204;-69
2020/12/05 11:03:13;;;;;;;6.50;5.43;;;;;;;4.33;79.06;99144.84;5046411;28;20205;-69
2020/12/05 11:05:40;;;;;;;5.60;4.83;;;;;;;4.37;79.21;99138.47;5044569;28;20650;-69
2020/12/05 11:08:06;;;;;;;7.57;5.70;;;;;;;4.40;79.09;99131.22;5045727;28;20232;-70
2020/12/05 11:10:32;;;;;;;9.63;8.63;;;;;;;4.46;78.93;99149.28;5044258;28;20505;-69
2020/12/05 11:12:58;;;;;;;8.80;6.47;;;;;;;4.49;78.75;99161.41;5043823;28;20832;-69
2020/12/05 11:15:24;;;;;;;6.27;4.97;;;;;;;4.51;78.20;99155.09;5044968;28;20205;-69
2020/12/05 11:17:50;;;;;;;6.40;5.70;;;;;;;4.55;78.35;99168.94;5047145;28;20592;-69
2020/12/05 11:20:19;;;;;;;5.10;4.57;;;;;;;4.60;78.21;99153.69;5044036;28;20198;-69
2020/12/05 11:22:46;;;;;;;5.90;5.20;;;;;;;4.64;78.15;99146.44;5036390;28;20221;-69
2020/12/05 11:25:13;;;;;;;13.00;10.83;;;;;;;4.67;77.99;99157.63;5047021;28;20229;-68
2020/12/05 11:27:39;;;;;;;6.60;5.70;;;;;;;4.71;77.98;99156.50;5050178;28;20297;-68
2020/12/05 11:30:05;;;;;;;5.87;5.27;;;;;;;4.76;78.09;99159.69;5048046;28;20198;-69
2020/12/05 11:32:31;;;;;;;6.40;5.80;;;;;;;4.81;77.65;99165.53;5049290;28;20236;-69